Terminal Aerodrome Forecast
Issued by NWS Chicago, IL

Home | Current Version | Previous Version | Text Only | Print | Product List | Glossary Off
Versions: 1 2 3 4 5 6 7 8 9 10 11 12 13 14 15 16 17 18 19 20 21 22 23 24 25 26 27 28

291
FTUS43 KLOT 301949 AAA
TAFRFD
TAF AMD
KRFD 301949Z 3020/0118 07012G19KT 4SM -RA BR OVC010
     FM302300 07012G18KT 4SM -RA BR OVC009
     FM010200 05012KT 2SM -RADZ BR OVC005
     FM010600 04012KT 2SM -DZ BR OVC003
     FM011100 03010KT 4SM BR VCSH OVC007=

USA.gov is the U.S. government's official web portal to all federal, state and local government web resources and services.